createdAt,value
2022-11-16T00:02:23.012Z,3.26
2022-11-16T00:04:51.277Z,3.30
2022-11-16T00:07:19.314Z,3.34
2022-11-16T00:09:47.418Z,3.37
2022-11-16T00:12:15.486Z,3.39
2022-11-16T00:14:43.564Z,3.44
2022-11-16T00:17:11.493Z,3.48
2022-11-16T00:19:39.499Z,3.49
2022-11-16T00:22:07.572Z,3.52
2022-11-16T00:24:35.743Z,3.55
2022-11-16T00:27:03.927Z,3.58
2022-11-16T00:29:31.888Z,3.60
2022-11-16T00:31:59.959Z,3.65
2022-11-16T00:34:28.747Z,3.70
2022-11-16T00:36:56.819Z,3.71
2022-11-16T00:39:25.198Z,3.74
2022-11-16T00:41:53.267Z,3.77
2022-11-16T00:44:21.466Z,3.77
2022-11-16T00:46:49.623Z,3.76
2022-11-16T00:49:17.694Z,3.73
2022-11-16T00:51:45.760Z,3.68
2022-11-16T00:54:14.044Z,3.64
2022-11-16T00:56:42.313Z,3.63
2022-11-16T00:59:10.398Z,3.59
2022-11-16T01:01:38.727Z,3.56
2022-11-16T01:04:07.658Z,3.52
2022-11-16T01:06:37.187Z,3.49
2022-11-16T01:09:05.235Z,3.46
2022-11-16T01:11:51.847Z,3.42
2022-11-16T01:14:19.930Z,3.38
2022-11-16T01:16:50.853Z,3.34
2022-11-16T01:19:19.030Z,3.32
2022-11-16T01:21:47.109Z,3.31
2022-11-16T01:24:15.176Z,3.30
2022-11-16T01:26:43.555Z,3.28
2022-11-16T01:29:11.831Z,3.25
2022-11-16T01:31:43.707Z,3.22
2022-11-16T01:34:11.762Z,3.20
2022-11-16T01:36:39.830Z,3.19
2022-11-16T01:39:08.822Z,3.17
2022-11-16T01:41:44.472Z,3.15
2022-11-16T01:44:15.622Z,3.12
2022-11-16T01:46:54.486Z,3.10
2022-11-16T01:49:25.686Z,3.08
2022-11-16T01:52:02.066Z,3.06
2022-11-16T01:54:37.730Z,3.06
2022-11-16T01:57:09.854Z,3.04
2022-11-16T01:59:47.791Z,3.03
2022-11-16T02:02:19.121Z,3.01
2022-11-16T02:04:49.075Z,3.01
2022-11-16T02:07:24.601Z,3.02
2022-11-16T02:10:19.693Z,3.01
2022-11-16T02:13:22.167Z,2.99
2022-11-16T02:16:03.962Z,3.01
2022-11-16T02:18:59.270Z,3.05
2022-11-16T02:21:43.011Z,3.08
2022-11-16T02:24:42.832Z,3.09
2022-11-16T02:27:32.715Z,3.12
2022-11-16T02:30:01.529Z,3.14
2022-11-16T02:32:48.026Z,3.14
2022-11-16T02:35:25.394Z,3.16
2022-11-16T02:38:07.295Z,3.18
2022-11-16T02:40:39.379Z,3.19
2022-11-16T02:43:10.066Z,3.19
2022-11-16T02:45:47.800Z,3.18
2022-11-16T02:48:25.380Z,3.18
2022-11-16T02:50:54.680Z,3.18
2022-11-16T02:53:25.218Z,3.19
2022-11-16T02:55:53.794Z,3.21
2022-11-16T02:58:25.534Z,3.22
2022-11-16T03:01:17.006Z,3.22
2022-11-16T03:04:16.583Z,3.23
2022-11-16T03:06:48.891Z,3.22
2022-11-16T03:09:27.578Z,3.18
2022-11-16T03:12:00.817Z,3.16
2022-11-16T03:14:40.416Z,3.10
2022-11-16T03:17:16.060Z,3.02
2022-11-16T03:20:15.530Z,2.98
2022-11-16T03:22:54.892Z,2.94
2022-11-16T03:25:29.646Z,2.93
2022-11-16T03:28:43.484Z,2.91
2022-11-16T03:31:16.982Z,2.93
2022-11-16T03:33:56.126Z,2.96
2022-11-16T03:36:27.359Z,2.96
2022-11-16T03:39:01.422Z,2.97
2022-11-16T03:41:33.253Z,2.99
2022-11-16T03:44:02.293Z,2.99
2022-11-16T03:46:30.501Z,2.97
2022-11-16T03:49:01.226Z,2.96
2022-11-16T03:51:32.682Z,2.94
2022-11-16T03:54:00.863Z,2.92
2022-11-16T03:56:29.342Z,2.88
2022-11-16T03:58:58.330Z,2.82
2022-11-16T04:01:26.469Z,2.78
2022-11-16T04:03:54.689Z,2.76
2022-11-16T04:06:41.701Z,2.77
2022-11-16T04:09:29.326Z,2.75
2022-11-16T04:12:16.157Z,2.73
2022-11-16T04:15:03.356Z,2.72
2022-11-16T04:17:50.789Z,2.71
2022-11-16T04:20:37.499Z,2.63
2022-11-16T04:23:32.107Z,2.54
2022-11-16T04:26:00.568Z,2.49
2022-11-16T04:28:32.187Z,2.49
2022-11-16T04:31:23.028Z,2.50
2022-11-16T04:34:24.147Z,2.50
2022-11-16T04:37:12.595Z,2.49
2022-11-16T04:39:41.210Z,2.48
2022-11-16T04:42:19.259Z,2.48
2022-11-16T04:45:07.047Z,2.47
2022-11-16T04:47:44.136Z,2.47
2022-11-16T04:50:12.384Z,2.48
2022-11-16T04:52:41.299Z,2.49
2022-11-16T04:55:12.791Z,2.51
2022-11-16T04:57:40.927Z,2.54
2022-11-16T05:00:09.993Z,2.58
2022-11-16T05:02:38.607Z,2.64
2022-11-16T05:05:07.911Z,2.67
2022-11-16T05:07:37.257Z,2.69
2022-11-16T05:10:13.374Z,2.71
2022-11-16T05:12:41.623Z,2.76
2022-11-16T05:15:10.336Z,2.81
2022-11-16T05:17:38.509Z,2.83
2022-11-16T05:20:29.412Z,2.85
2022-11-16T05:23:01.692Z,2.87
2022-11-16T05:25:36.939Z,2.91
2022-11-16T05:28:07.555Z,2.94
2022-11-16T05:30:38.806Z,2.95
2022-11-16T05:33:07.086Z,2.98
2022-11-16T05:35:38.330Z,3.02
2022-11-16T05:38:06.396Z,3.06
2022-11-16T05:40:36.414Z,3.07
2022-11-16T05:43:04.493Z,3.08
2022-11-16T05:45:35.470Z,3.07
2022-11-16T05:48:03.803Z,3.06
2022-11-16T05:50:33.105Z,3.06
2022-11-16T05:53:06.090Z,3.04
2022-11-16T05:55:36.345Z,3.05
2022-11-16T05:58:04.281Z,3.03
2022-11-16T06:00:32.229Z,3.05
2022-11-16T06:03:00.676Z,3.08
2022-11-16T06:05:39.021Z,3.13
2022-11-16T06:08:08.976Z,3.18
2022-11-16T06:10:37.149Z,3.24
2022-11-16T06:13:05.536Z,3.30
2022-11-16T06:15:38.511Z,3.34
2022-11-16T06:18:08.012Z,3.36
2022-11-16T06:20:39.562Z,3.37
2022-11-16T06:23:07.741Z,3.37
2022-11-16T06:25:39.083Z,3.35
2022-11-16T06:28:08.246Z,3.29
2022-11-16T06:30:38.511Z,3.22
2022-11-16T06:33:07.397Z,3.12
2022-11-16T06:35:35.570Z,3.05
2022-11-16T06:38:04.492Z,3.01
2022-11-16T06:40:33.359Z,3.00
2022-11-16T06:43:02.344Z,2.95
2022-11-16T06:45:30.471Z,2.93
2022-11-16T06:48:00.128Z,2.94
2022-11-16T06:50:28.303Z,2.92
2022-11-16T06:52:56.577Z,2.91
2022-11-16T06:55:24.863Z,2.93
2022-11-16T06:57:53.540Z,2.95
2022-11-16T07:00:22.117Z,3.00
2022-11-16T07:02:50.762Z,3.04
2022-11-16T07:05:20.014Z,3.10
2022-11-16T07:07:48.244Z,3.15
2022-11-16T07:10:16.869Z,3.21
2022-11-16T07:12:44.957Z,3.29
2022-11-16T07:15:13.939Z,3.38
2022-11-16T07:17:43.015Z,3.48
2022-11-16T07:20:12.237Z,3.57
2022-11-16T07:22:40.718Z,3.65
2022-11-16T07:25:11.564Z,3.69
2022-11-16T07:27:39.626Z,3.64
2022-11-16T07:30:08.407Z,3.54
2022-11-16T07:33:08.741Z,3.58
2022-11-16T07:36:09.901Z,3.60
2022-11-16T07:38:39.286Z,3.61
2022-11-16T07:41:11.086Z,3.62
2022-11-16T07:43:51.461Z,3.63
2022-11-16T07:49:18.269Z,3.73
2022-11-16T07:51:55.665Z,3.77
2022-11-16T07:54:35.408Z,3.80
2022-11-16T07:57:04.398Z,3.86
2022-11-16T07:59:32.578Z,3.93
2022-11-16T08:02:01.716Z,4.00
2022-11-16T08:04:29.867Z,4.05
2022-11-16T08:06:59.376Z,4.13
2022-11-16T08:09:27.838Z,4.22
2022-11-16T08:11:55.905Z,4.31
2022-11-16T08:14:24.693Z,4.37
2022-11-16T08:16:53.892Z,4.45
2022-11-16T08:19:21.841Z,4.47
2022-11-16T08:21:49.927Z,4.43
2022-11-16T08:24:18.617Z,4.37
2022-11-16T08:26:46.999Z,4.36
2022-11-16T08:29:16.087Z,4.34
2022-11-16T08:31:48.668Z,4.37
2022-11-16T08:34:19.812Z,4.40
2022-11-16T08:36:50.960Z,4.44
2022-11-16T08:39:20.424Z,4.46
2022-11-16T08:41:48.539Z,4.47
2022-11-16T08:44:16.711Z,4.49
2022-11-16T08:46:46.833Z,4.47
2022-11-16T08:49:22.890Z,4.41
2022-11-16T08:51:50.960Z,4.40
2022-11-16T08:54:20.358Z,4.42
2022-11-16T08:56:49.250Z,4.46
2022-11-16T08:59:18.150Z,4.51
2022-11-16T09:01:52.220Z,4.55
2022-11-16T09:04:20.315Z,4.59
2022-11-16T09:06:48.445Z,4.61
2022-11-16T09:09:16.682Z,4.65
2022-11-16T09:11:44.967Z,4.72
2022-11-16T09:14:13.025Z,4.77
2022-11-16T09:16:41.098Z,4.77
2022-11-16T09:19:09.496Z,4.81
2022-11-16T09:21:37.748Z,4.84
2022-11-16T09:24:06.129Z,4.92
2022-11-16T09:26:34.132Z,5.00
2022-11-16T09:29:04.531Z,5.03
2022-11-16T09:31:34.850Z,5.06
2022-11-16T09:34:03.132Z,5.15
2022-11-16T09:36:31.204Z,5.27
2022-11-16T09:39:30.187Z,5.39
2022-11-16T09:41:59.599Z,5.52
2022-11-16T09:44:30.338Z,5.60
2022-11-16T09:46:59.861Z,5.70
2022-11-16T09:49:33.442Z,5.79
2022-11-16T09:52:03.668Z,5.80
2022-11-16T09:54:35.606Z,5.83
2022-11-16T09:57:12.050Z,5.82
2022-11-16T09:59:46.721Z,5.78
2022-11-16T10:02:24.116Z,5.85
2022-11-16T10:04:57.733Z,5.92
2022-11-16T10:07:31.873Z,6.06
2022-11-16T10:10:00.203Z,6.17
2022-11-16T10:12:28.180Z,6.28
2022-11-16T10:15:12.872Z,6.42
2022-11-16T10:17:58.729Z,6.57
2022-11-16T10:20:45.130Z,6.71
2022-11-16T10:23:16.168Z,6.84
2022-11-16T10:25:45.690Z,6.91
2022-11-16T10:28:22.733Z,6.94
2022-11-16T10:31:03.230Z,6.98
2022-11-16T10:33:36.324Z,7.03
2022-11-16T10:36:08.987Z,7.04
2022-11-16T10:38:37.988Z,7.02
2022-11-16T10:41:14.665Z,7.01
2022-11-16T10:43:43.442Z,6.99
2022-11-16T10:46:23.911Z,6.97
2022-11-16T10:48:57.608Z,6.97
2022-11-16T10:51:25.683Z,6.98
2022-11-16T10:53:54.344Z,6.98
2022-11-16T10:56:25.512Z,6.96
2022-11-16T10:58:56.766Z,6.93
2022-11-16T11:01:32.163Z,6.92
2022-11-16T11:04:29.255Z,6.90
2022-11-16T11:06:58.759Z,6.90
2022-11-16T11:09:26.863Z,6.90
2022-11-16T11:12:20.609Z,6.87
2022-11-16T11:15:21.404Z,6.82
2022-11-16T11:18:12.016Z,6.83
2022-11-16T11:20:44.861Z,6.83
2022-11-16T11:23:18.941Z,6.84
2022-11-16T11:25:54.183Z,6.85
2022-11-16T11:28:28.548Z,6.89
2022-11-16T11:30:59.344Z,6.91
2022-11-16T11:33:33.892Z,6.94
2022-11-16T11:36:02.145Z,6.97
2022-11-16T11:38:30.721Z,7.02
2022-11-16T11:41:00.327Z,7.10
2022-11-16T11:43:29.320Z,7.39
2022-11-16T11:46:04.107Z,7.81
2022-11-16T11:48:37.856Z,8.04
2022-11-16T11:51:32.045Z,8.20
2022-11-16T11:54:01.040Z,8.46
2022-11-16T11:56:30.954Z,8.74
2022-11-16T11:58:58.927Z,8.97
2022-11-16T12:01:45.430Z,9.00
2022-11-16T12:04:31.956Z,8.94
2022-11-16T12:06:59.945Z,8.85
2022-11-16T12:09:42.921Z,8.74
2022-11-16T12:12:19.697Z,8.64
2022-11-16T12:15:06.203Z,8.55
2022-11-16T12:18:12.588Z,8.45
2022-11-16T12:21:01.224Z,8.30
2022-11-16T12:23:58.687Z,8.24
2022-11-16T12:26:32.496Z,8.23
2022-11-16T12:29:03.534Z,8.24
2022-11-16T12:31:50.344Z,8.27
2022-11-16T12:34:37.151Z,8.25
2022-11-16T12:37:05.128Z,8.19
2022-11-16T12:39:43.441Z,8.19
2022-11-16T12:42:24.094Z,8.18
2022-11-16T12:44:58.334Z,8.14
2022-11-16T12:47:35.605Z,8.13
2022-11-16T12:50:22.517Z,8.10
2022-11-16T12:53:06.055Z,8.05
2022-11-16T12:55:36.994Z,7.93
2022-11-16T12:58:04.971Z,7.99
2022-11-16T13:00:48.218Z,7.98
2022-11-16T13:03:21.275Z,8.03
2022-11-16T13:05:49.243Z,8.09
2022-11-16T13:08:32.477Z,8.14
2022-11-16T13:11:09.252Z,8.16
2022-11-16T13:13:38.386Z,8.14
2022-11-16T13:16:07.541Z,8.11
2022-11-16T13:18:38.692Z,8.07
2022-11-16T13:21:21.302Z,8.03
2022-11-16T13:24:08.121Z,8.00
2022-11-16T13:26:54.663Z,7.93
2022-11-16T13:29:30.495Z,7.85
2022-11-16T13:32:02.859Z,7.82
2022-11-16T13:34:32.757Z,7.76
2022-11-16T13:37:00.831Z,7.72
2022-11-16T13:39:54.503Z,7.72
2022-11-16T13:42:22.475Z,7.73
2022-11-16T13:44:51.756Z,7.71
2022-11-16T13:47:24.968Z,7.69
2022-11-16T13:50:03.483Z,7.67
2022-11-16T13:55:35.062Z,7.68
2022-11-16T13:58:04.668Z,7.68
2022-11-16T14:00:41.690Z,7.68
2022-11-16T14:03:15.963Z,7.67
2022-11-16T14:05:45.432Z,7.68
2022-11-16T14:08:19.584Z,7.70
2022-11-16T14:10:50.517Z,7.72
2022-11-16T14:13:37.345Z,7.76
2022-11-16T14:16:17.330Z,7.79
2022-11-16T14:18:48.330Z,7.80
2022-11-16T14:21:19.363Z,7.79
2022-11-16T14:23:53.493Z,7.80
2022-11-16T14:26:21.450Z,7.83
2022-11-16T14:29:00.576Z,7.85
2022-11-16T14:31:45.546Z,7.89
2022-11-16T14:34:19.191Z,7.93
2022-11-16T14:36:47.524Z,7.96
2022-11-16T14:39:17.137Z,7.99
2022-11-16T14:41:46.439Z,8.01
2022-11-16T14:44:18.909Z,8.04
2022-11-16T14:46:46.986Z,8.06
2022-11-16T14:49:16.699Z,8.09
2022-11-16T14:51:47.480Z,8.11
2022-11-16T14:54:26.051Z,8.13
2022-11-16T14:57:01.700Z,8.13
2022-11-16T14:59:30.686Z,8.10
2022-11-16T15:02:01.831Z,8.10
2022-11-16T15:04:30.113Z,8.07
2022-11-16T15:06:59.566Z,8.04
2022-11-16T15:09:29.629Z,8.04
2022-11-16T15:12:16.811Z,8.07
2022-11-16T15:14:47.892Z,8.09
2022-11-16T15:17:17.500Z,8.10
2022-11-16T15:19:54.072Z,8.14
2022-11-16T15:22:22.557Z,8.18
2022-11-16T15:24:54.824Z,8.22
2022-11-16T15:27:31.394Z,8.23
2022-11-16T15:30:01.417Z,8.27
2022-11-16T15:32:29.483Z,8.30
2022-11-16T15:35:02.478Z,8.32
2022-11-16T15:37:33.208Z,8.34
2022-11-16T15:40:02.617Z,8.36
2022-11-16T15:42:30.686Z,8.37
2022-11-16T15:45:00.395Z,8.37
2022-11-16T15:47:28.257Z,8.36
2022-11-16T15:49:56.437Z,8.33
2022-11-16T15:52:47.648Z,8.31
2022-11-16T15:55:31.913Z,8.28
2022-11-16T15:58:05.089Z,8.26
2022-11-16T16:00:35.112Z,8.25
2022-11-16T16:03:07.995Z,8.23
2022-11-16T16:05:40.071Z,8.21
2022-11-16T16:08:24.514Z,8.18
2022-11-16T16:11:01.494Z,8.15
2022-11-16T16:13:32.734Z,8.12
2022-11-16T16:16:19.654Z,8.09
2022-11-16T16:18:47.935Z,8.06
2022-11-16T16:21:16.417Z,8.01
2022-11-16T16:23:46.434Z,7.97
2022-11-16T16:26:14.840Z,7.92
2022-11-16T16:28:43.296Z,7.87
2022-11-16T16:31:11.674Z,7.81
2022-11-16T16:33:39.639Z,7.75
2022-11-16T16:36:08.224Z,7.71
2022-11-16T16:38:35.997Z,7.65
2022-11-16T16:41:04.985Z,7.61
2022-11-16T16:43:33.158Z,7.57
2022-11-16T16:46:02.763Z,7.54
2022-11-16T16:48:31.252Z,7.52
2022-11-16T16:50:59.213Z,7.50
2022-11-16T16:53:27.142Z,7.47
2022-11-16T16:55:55.041Z,7.45
2022-11-16T16:58:22.926Z,7.42
2022-11-16T17:00:51.144Z,7.40
2022-11-16T17:03:19.093Z,7.38
2022-11-16T17:05:47.029Z,7.37
2022-11-16T17:08:15.000Z,7.35
2022-11-16T17:10:42.866Z,7.34
2022-11-16T17:13:10.844Z,7.33
2022-11-16T17:15:38.710Z,7.32
2022-11-16T17:18:06.575Z,7.30
2022-11-16T17:20:34.438Z,7.28
2022-11-16T17:23:03.230Z,7.28
2022-11-16T17:25:33.079Z,7.28
2022-11-16T17:28:01.036Z,7.28
2022-11-16T17:30:30.414Z,7.30
2022-11-16T17:32:58.388Z,7.32
2022-11-16T17:35:26.356Z,7.34
2022-11-16T17:37:54.324Z,7.36
2022-11-16T17:40:22.216Z,7.40
2022-11-16T17:42:50.159Z,7.44
2022-11-16T17:45:18.023Z,7.49
2022-11-16T17:47:45.889Z,7.54
2022-11-16T17:50:14.095Z,7.60
2022-11-16T17:52:42.042Z,7.65
2022-11-16T17:55:09.899Z,7.70
2022-11-16T17:57:37.767Z,7.75
2022-11-16T18:00:06.564Z,7.79
2022-11-16T18:02:34.527Z,7.82
2022-11-16T18:05:02.603Z,7.84
2022-11-16T18:07:30.518Z,7.87
2022-11-16T18:09:58.440Z,7.90
2022-11-16T18:12:26.507Z,7.92
2022-11-16T18:15:21.340Z,7.93
2022-11-16T18:17:42.257Z,7.95
2022-11-16T18:20:10.487Z,7.97
2022-11-16T18:22:38.575Z,7.99
2022-11-16T18:25:07.552Z,7.99
2022-11-16T18:27:35.315Z,8.01
2022-11-16T18:30:03.223Z,8.02
2022-11-16T18:32:31.157Z,8.05
2022-11-16T18:34:59.537Z,8.08
2022-11-16T18:37:27.505Z,8.10
2022-11-16T18:39:55.409Z,8.11
2022-11-16T18:42:23.254Z,8.11
2022-11-16T18:44:51.612Z,8.10
2022-11-16T18:47:19.479Z,8.10
2022-11-16T18:49:47.314Z,8.10
2022-11-16T18:52:15.220Z,8.11
2022-11-16T18:54:43.093Z,8.13
2022-11-16T18:57:11.272Z,8.17
2022-11-16T18:59:39.129Z,8.24
2022-11-16T19:02:06.994Z,8.30
2022-11-16T19:04:34.962Z,8.35
2022-11-16T19:07:02.976Z,8.38
2022-11-16T19:09:31.106Z,8.40
2022-11-16T19:11:58.973Z,8.41
2022-11-16T19:14:26.842Z,8.42
2022-11-16T19:16:57.349Z,8.44
2022-11-16T19:19:27.900Z,8.45
2022-11-16T19:21:57.107Z,8.45
2022-11-16T19:24:24.959Z,8.42
2022-11-16T19:26:53.133Z,8.39
2022-11-16T19:29:21.000Z,8.37
2022-11-16T19:31:49.073Z,8.37
2022-11-16T19:34:16.944Z,8.36
2022-11-16T19:36:44.815Z,8.35
2022-11-16T19:39:12.780Z,8.34
2022-11-16T19:41:40.644Z,8.34
2022-11-16T19:44:08.621Z,8.34
2022-11-16T19:46:36.787Z,8.34
2022-11-16T19:49:04.766Z,8.34
2022-11-16T19:51:33.754Z,8.34
2022-11-16T19:54:02.551Z,8.35
2022-11-16T19:56:30.606Z,8.35
2022-11-16T19:58:58.688Z,8.35
2022-11-16T20:01:29.537Z,8.35
2022-11-16T20:03:58.920Z,8.35
2022-11-16T20:06:29.327Z,8.32
2022-11-16T20:09:00.702Z,8.32
2022-11-16T20:11:29.927Z,8.32
2022-11-16T20:13:58.551Z,8.30
2022-11-16T20:16:27.606Z,8.28
2022-11-16T20:18:55.754Z,8.26
2022-11-16T20:21:25.764Z,8.26
2022-11-16T20:23:54.042Z,8.26
2022-11-16T20:26:22.933Z,8.28
2022-11-16T20:28:52.644Z,8.29
2022-11-16T20:31:21.917Z,8.30
2022-11-16T20:33:51.248Z,8.30
2022-11-16T20:36:19.826Z,8.29
2022-11-16T20:38:47.802Z,8.28
2022-11-16T20:41:19.965Z,8.28
2022-11-16T20:43:50.495Z,8.27
2022-11-16T20:46:19.078Z,8.23
2022-11-16T20:48:47.469Z,8.20
2022-11-16T20:51:17.075Z,8.21
2022-11-16T20:53:46.166Z,8.23
2022-11-16T20:56:14.949Z,8.25
2022-11-16T20:58:43.333Z,8.28
2022-11-16T21:01:15.638Z,8.31
2022-11-16T21:03:45.008Z,8.34
2022-11-16T21:06:13.795Z,8.35
2022-11-16T21:08:42.175Z,8.37
2022-11-16T21:11:14.444Z,8.38
2022-11-16T21:14:00.642Z,8.37
2022-11-16T21:16:28.504Z,8.36
2022-11-16T21:18:56.578Z,8.35
2022-11-16T21:21:24.965Z,8.33
2022-11-16T21:23:54.203Z,8.32
2022-11-16T21:26:23.355Z,8.30
2022-11-16T21:28:52.092Z,8.28
2022-11-16T21:31:21.696Z,8.25
2022-11-16T21:33:49.620Z,8.20
2022-11-16T21:36:18.608Z,8.15
2022-11-16T21:38:47.090Z,8.13
2022-11-16T21:41:15.883Z,8.10
2022-11-16T21:43:44.409Z,8.08
2022-11-16T21:46:13.768Z,8.05
2022-11-16T21:48:41.943Z,8.03
2022-11-16T21:51:11.142Z,7.99
2022-11-16T21:53:39.412Z,7.97
2022-11-16T21:56:08.307Z,7.94
2022-11-16T21:58:36.169Z,7.90
2022-11-16T22:01:04.181Z,7.87
2022-11-16T22:03:32.795Z,7.85
2022-11-16T22:06:20.661Z,7.82
2022-11-16T22:08:48.940Z,7.79
2022-11-16T22:11:16.925Z,7.76
2022-11-16T22:13:44.773Z,7.73
2022-11-16T22:16:15.211Z,7.71
2022-11-16T22:18:43.278Z,7.70
2022-11-16T22:21:11.504Z,7.67
2022-11-16T22:23:39.728Z,7.65
2022-11-16T22:26:08.944Z,7.62
2022-11-16T22:28:37.621Z,7.59
2022-11-16T22:31:06.515Z,7.58
2022-11-16T22:33:35.078Z,7.58
2022-11-16T22:36:04.037Z,7.56
2022-11-16T22:38:33.528Z,7.56
2022-11-16T22:41:01.560Z,7.57
2022-11-16T22:43:30.573Z,7.56
2022-11-16T22:46:02.754Z,7.55
2022-11-16T22:48:31.301Z,7.56
2022-11-16T22:51:15.343Z,7.56
2022-11-16T22:53:43.210Z,7.57
2022-11-16T22:56:11.289Z,7.58
2022-11-16T22:58:39.867Z,7.59
2022-11-16T23:01:09.071Z,7.61
2022-11-16T23:03:37.783Z,7.64
2022-11-16T23:06:06.746Z,7.68
2022-11-16T23:08:35.328Z,7.71
2022-11-16T23:11:23.778Z,7.74
2022-11-16T23:14:11.307Z,7.78
2022-11-16T23:16:39.671Z,7.81
2022-11-16T23:19:28.343Z,7.83
2022-11-16T23:22:15.177Z,7.85
2022-11-16T23:25:02.173Z,7.89
2022-11-16T23:27:38.544Z,7.92
2022-11-16T23:30:12.100Z,7.94
2022-11-16T23:32:41.538Z,7.96
2022-11-16T23:35:09.918Z,7.97
2022-11-16T23:37:51.663Z,8.00
2022-11-16T23:40:20.398Z,8.02
2022-11-16T23:43:07.116Z,8.04
2022-11-16T23:45:34.980Z,8.07
2022-11-16T23:48:02.839Z,8.11
2022-11-16T23:50:30.714Z,8.14
2022-11-16T23:52:58.579Z,8.14
2022-11-16T23:55:27.022Z,8.15
2022-11-16T23:57:55.336Z,8.14
